createdAt,value
2022-11-17T00:00:45.017Z,98409.72
2022-11-17T00:03:16.016Z,98353.25
2022-11-17T00:05:46.173Z,98393.59
2022-11-17T00:08:14.636Z,98402.41
2022-11-17T00:10:42.884Z,98406.75
2022-11-17T00:13:37.714Z,98394.47
2022-11-17T00:16:06.885Z,98390.81
2022-11-17T00:18:57.933Z,98424.06
2022-11-17T00:21:28.928Z,98373.25
2022-11-17T00:23:57.932Z,98338.19
2022-11-17T00:26:28.190Z,98385.69
2022-11-17T00:28:58.989Z,98332.28
2022-11-17T00:31:47.115Z,98339.97
2022-11-17T00:34:18.108Z,98342.34
2022-11-17T00:36:49.720Z,98279.69
2022-11-17T00:39:20.190Z,98312.91
2022-11-17T00:41:48.452Z,98359.56
2022-11-17T00:44:17.430Z,98351.28
2022-11-17T00:46:46.094Z,98316.00
2022-11-17T00:49:14.994Z,98337.72
2022-11-17T00:51:43.934Z,98339.38
2022-11-17T00:54:15.457Z,98320.78
2022-11-17T00:56:43.780Z,98301.19
2022-11-17T00:59:12.337Z,98309.56
2022-11-17T01:01:41.622Z,98340.78
2022-11-17T01:04:10.322Z,98308.84
2022-11-17T01:06:41.629Z,98299.41
2022-11-17T01:09:15.525Z,98316.09
2022-11-17T01:11:44.286Z,98248.88
2022-11-17T01:14:16.401Z,98339.63
2022-11-17T01:16:45.808Z,98291.88
2022-11-17T01:19:15.932Z,98299.03
2022-11-17T01:21:44.958Z,98287.09
2022-11-17T01:24:17.292Z,98285.84
2022-11-17T01:26:47.146Z,98283.75
2022-11-17T01:29:18.040Z,98257.22
2022-11-17T01:31:51.048Z,98251.91
2022-11-17T01:34:19.850Z,98267.03
2022-11-17T01:37:05.500Z,98325.84
2022-11-17T01:39:35.220Z,98259.09
2022-11-17T01:42:05.850Z,98268.38
2022-11-17T01:45:02.961Z,98253.06
2022-11-17T01:47:43.946Z,98254.13
2022-11-17T01:50:26.495Z,98234.78
2022-11-17T01:52:59.536Z,98235.56
2022-11-17T01:55:36.951Z,98228.88
2022-11-17T01:58:10.153Z,98246.19
2022-11-17T02:00:38.659Z,98256.13
2022-11-17T02:03:07.149Z,98219.06
2022-11-17T02:05:44.675Z,98215.88
2022-11-17T02:08:13.313Z,98197.91
2022-11-17T02:10:48.604Z,98216.16
2022-11-17T02:13:20.459Z,98217.34
2022-11-17T02:15:49.070Z,98097.53
2022-11-17T02:18:18.380Z,98194.47
2022-11-17T02:21:09.050Z,98204.31
2022-11-17T02:24:13.944Z,98136.72
2022-11-17T02:27:40.001Z,98180.56
2022-11-17T02:30:11.938Z,98186.41
2022-11-17T02:32:50.835Z,98181.63
2022-11-17T02:35:26.970Z,98186.06
2022-11-17T02:38:09.766Z,98184.81
2022-11-17T02:40:44.961Z,98182.47
2022-11-17T02:43:35.937Z,98168.16
2022-11-17T02:46:08.275Z,98166.31
2022-11-17T02:48:40.191Z,98215.66
2022-11-17T02:51:16.996Z,98173.69
2022-11-17T02:53:45.264Z,98140.28
2022-11-17T02:56:13.448Z,98176.00
2022-11-17T02:58:43.065Z,98158.47
2022-11-17T03:01:39.008Z,98162.66
2022-11-17T03:04:30.092Z,98168.59
2022-11-17T03:07:15.056Z,98171.16
2022-11-17T03:09:51.277Z,98148.63
2022-11-17T03:12:26.072Z,98141.88
2022-11-17T03:15:03.342Z,98130.06
2022-11-17T03:17:38.913Z,98138.09
2022-11-17T03:20:14.929Z,98135.56
2022-11-17T03:22:51.505Z,98152.31
2022-11-17T03:25:23.143Z,98124.41
2022-11-17T03:27:57.065Z,98123.31
2022-11-17T03:30:27.030Z,98117.88
2022-11-17T03:33:05.159Z,98108.53
2022-11-17T03:35:37.721Z,98111.44
2022-11-17T03:38:11.741Z,98110.66
2022-11-17T03:40:44.035Z,98102.63
2022-11-17T03:43:15.142Z,98091.50
2022-11-17T03:45:50.253Z,98090.91
2022-11-17T03:48:24.050Z,98086.63
2022-11-17T03:50:58.211Z,98088.50
2022-11-17T03:53:26.562Z,98103.22
2022-11-17T03:56:03.138Z,98112.19
2022-11-17T03:58:36.109Z,98084.41
2022-11-17T04:01:09.151Z,98071.25
2022-11-17T04:03:38.241Z,98093.66
2022-11-17T04:06:07.279Z,98092.84
2022-11-17T04:08:35.570Z,98099.16
2022-11-17T04:11:21.329Z,98098.72
2022-11-17T04:14:07.289Z,98091.41
2022-11-17T04:16:36.872Z,98086.81
2022-11-17T04:19:05.102Z,98090.56
2022-11-17T04:21:33.417Z,98073.44
2022-11-17T04:24:01.735Z,98058.47
2022-11-17T04:26:47.606Z,98063.72
2022-11-17T04:29:16.041Z,98076.00
2022-11-17T04:31:45.600Z,98046.59
2022-11-17T04:34:13.864Z,98037.66
2022-11-17T04:36:46.454Z,98048.63
2022-11-17T04:39:16.624Z,98061.53
2022-11-17T04:42:03.314Z,98054.41
2022-11-17T04:44:33.213Z,98035.41
2022-11-17T04:47:03.624Z,98039.84
2022-11-17T04:49:33.726Z,98059.94
2022-11-17T04:52:02.480Z,98032.03
2022-11-17T04:54:30.767Z,98029.31
2022-11-17T04:56:59.009Z,98074.06
2022-11-17T04:59:27.205Z,98034.63
2022-11-17T05:01:55.485Z,98046.22
2022-11-17T05:04:41.747Z,98028.13
2022-11-17T05:07:10.592Z,98035.09
2022-11-17T05:09:38.883Z,98024.09
2022-11-17T05:12:25.220Z,98038.53
2022-11-17T05:14:53.502Z,98048.09
2022-11-17T05:17:20.730Z,98048.09
2022-11-17T05:19:50.344Z,98042.81
2022-11-17T05:22:38.885Z,98022.16
2022-11-17T05:25:08.788Z,98053.06
2022-11-17T05:27:37.734Z,98040.94
2022-11-17T05:30:09.661Z,98046.81
2022-11-17T05:32:37.893Z,98035.28
2022-11-17T05:35:08.957Z,98036.06
2022-11-17T05:37:37.159Z,98022.16
2022-11-17T05:40:06.534Z,98032.75
2022-11-17T05:42:35.909Z,98020.09
2022-11-17T05:45:04.263Z,98033.31
2022-11-17T05:47:32.490Z,98033.06
2022-11-17T05:50:00.699Z,98040.94
2022-11-17T05:52:30.322Z,98068.63
2022-11-17T05:54:58.516Z,98045.38
2022-11-17T05:57:32.059Z,98053.25
2022-11-17T06:00:04.991Z,98056.81
2022-11-17T06:02:47.073Z,98058.72
2022-11-17T06:05:20.014Z,98059.47
2022-11-17T06:07:50.283Z,98047.78
2022-11-17T06:10:18.971Z,98037.84
2022-11-17T06:12:47.441Z,98025.47
2022-11-17T06:15:15.901Z,98055.19
2022-11-17T06:17:50.763Z,98040.34
2022-11-17T06:20:23.061Z,98047.41
2022-11-17T06:22:53.008Z,98043.75
2022-11-17T06:25:21.978Z,98038.28
2022-11-17T06:27:52.229Z,98051.63
2022-11-17T06:30:21.282Z,98053.31
2022-11-17T06:32:51.160Z,98042.22
2022-11-17T06:35:19.485Z,98057.16
2022-11-17T06:37:47.689Z,98057.06
2022-11-17T06:40:18.708Z,98038.53
2022-11-17T06:43:00.859Z,98068.88
2022-11-17T06:45:29.085Z,98059.22
2022-11-17T06:47:57.252Z,98063.47
2022-11-17T06:50:25.466Z,98125.31
2022-11-17T06:52:57.690Z,98102.22
2022-11-17T06:55:27.999Z,98096.94
2022-11-17T06:58:01.260Z,98059.19
2022-11-17T07:00:30.787Z,98115.56
2022-11-17T07:03:03.544Z,98092.09
2022-11-17T07:05:33.027Z,98064.94
2022-11-17T07:08:02.979Z,97989.72
2022-11-17T07:10:33.720Z,98108.53
2022-11-17T07:13:01.988Z,98075.22
2022-11-17T07:15:30.675Z,98103.25
2022-11-17T07:17:59.525Z,98105.59
2022-11-17T07:20:27.948Z,98082.75
2022-11-17T07:23:00.921Z,98110.88
2022-11-17T07:25:29.142Z,98081.28
2022-11-17T07:28:02.262Z,98073.13
2022-11-17T07:30:30.874Z,98088.31
2022-11-17T07:33:00.308Z,98110.41
2022-11-17T07:35:29.123Z,98100.44
2022-11-17T07:38:01.327Z,98099.59
2022-11-17T07:40:30.124Z,98107.25
2022-11-17T07:42:58.727Z,98068.56
2022-11-17T07:45:31.896Z,98089.88
2022-11-17T07:48:04.546Z,98076.00
2022-11-17T07:50:33.560Z,98092.69
2022-11-17T07:53:01.899Z,98127.69
2022-11-17T07:55:30.292Z,98114.06
2022-11-17T07:58:00.344Z,98113.22
2022-11-17T08:00:33.620Z,98151.38
2022-11-17T08:03:03.655Z,98091.72
2022-11-17T08:05:32.309Z,98110.53
2022-11-17T08:08:01.499Z,98116.94
2022-11-17T08:10:31.383Z,98115.56
2022-11-17T08:13:00.962Z,98097.31
2022-11-17T08:15:31.653Z,98125.97
2022-11-17T08:18:01.335Z,98121.13
2022-11-17T08:20:30.915Z,98104.56
2022-11-17T08:22:59.657Z,98127.00
2022-11-17T08:25:28.737Z,98159.47
2022-11-17T08:27:57.931Z,98113.81
2022-11-17T08:30:28.614Z,98142.44
2022-11-17T08:32:58.289Z,98174.22
2022-11-17T08:35:30.680Z,98130.75
2022-11-17T08:38:01.437Z,98161.63
2022-11-17T08:40:29.664Z,98149.31
2022-11-17T08:43:01.208Z,98159.84
2022-11-17T08:45:30.464Z,98154.59
2022-11-17T08:48:00.255Z,98141.16
2022-11-17T08:50:29.073Z,98170.47
2022-11-17T08:52:57.444Z,98157.13
2022-11-17T08:55:27.212Z,98153.03
2022-11-17T08:57:55.560Z,98159.69
2022-11-17T09:00:24.405Z,98177.22
2022-11-17T09:02:52.654Z,98147.84
2022-11-17T09:05:22.241Z,98167.22
2022-11-17T09:07:50.755Z,98179.19
2022-11-17T09:10:19.499Z,98184.66
2022-11-17T09:12:47.830Z,98207.78
2022-11-17T09:15:16.440Z,98207.63
2022-11-17T09:17:47.742Z,98208.72
2022-11-17T09:20:16.983Z,98187.41
2022-11-17T09:22:46.918Z,98170.66
2022-11-17T09:25:16.898Z,98185.53
2022-11-17T09:27:45.156Z,98213.66
2022-11-17T09:30:14.388Z,98197.28
2022-11-17T09:32:42.735Z,98218.31
2022-11-17T09:35:11.190Z,98196.44
2022-11-17T09:37:39.451Z,98209.06
2022-11-17T09:40:15.768Z,98212.72
2022-11-17T09:42:44.762Z,98232.97
2022-11-17T09:45:19.468Z,98224.69
2022-11-17T09:48:06.988Z,98207.03
2022-11-17T09:50:42.283Z,98240.59
2022-11-17T09:53:16.872Z,98233.72
2022-11-17T09:55:50.776Z,98235.47
2022-11-17T09:58:31.188Z,98246.75
2022-11-17T10:00:59.704Z,98256.56
2022-11-17T10:03:30.549Z,98259.44
2022-11-17T10:06:00.772Z,98274.41
2022-11-17T10:08:38.075Z,98262.53
2022-11-17T10:11:28.334Z,98244.31
2022-11-17T10:13:56.603Z,98269.09
2022-11-17T10:16:24.968Z,98240.13
2022-11-17T10:18:53.364Z,98272.22
2022-11-17T10:21:21.631Z,98282.81
2022-11-17T10:23:58.214Z,98243.28
2022-11-17T10:26:28.248Z,98299.00
2022-11-17T10:29:08.983Z,98278.69
2022-11-17T10:31:45.881Z,98299.28
2022-11-17T10:34:37.015Z,98308.13
2022-11-17T10:37:30.102Z,98303.00
2022-11-17T10:40:23.624Z,98310.59
2022-11-17T10:43:19.215Z,98299.50
2022-11-17T10:45:48.722Z,98306.03
2022-11-17T10:48:29.419Z,98279.69
2022-11-17T10:50:59.875Z,98284.47
2022-11-17T10:53:44.444Z,98285.13
2022-11-17T10:56:17.080Z,98287.63
2022-11-17T10:59:13.683Z,98304.72
2022-11-17T11:01:44.571Z,98318.03
2022-11-17T11:04:31.785Z,98318.72
2022-11-17T11:07:15.197Z,98328.22
2022-11-17T11:09:50.950Z,98327.34
2022-11-17T11:12:26.014Z,98344.94
2022-11-17T11:14:57.771Z,98345.03
2022-11-17T11:17:29.838Z,98352.03
2022-11-17T11:19:58.506Z,98343.38
2022-11-17T11:22:38.110Z,98344.09
2022-11-17T11:25:30.715Z,98340.28
2022-11-17T11:28:22.076Z,98370.50
2022-11-17T11:31:06.243Z,98344.63
2022-11-17T11:33:39.601Z,98331.66
2022-11-17T11:36:29.163Z,98339.66
2022-11-17T11:39:02.840Z,98363.50
2022-11-17T11:42:08.283Z,98346.06
2022-11-17T11:45:02.430Z,98352.75
2022-11-17T11:47:53.975Z,98373.09
2022-11-17T11:50:26.255Z,98387.50
2022-11-17T11:53:02.154Z,98350.25
2022-11-17T11:55:35.383Z,98373.38
2022-11-17T11:58:14.047Z,98342.50
2022-11-17T12:00:44.157Z,98394.56
2022-11-17T12:03:26.137Z,98379.38
2022-11-17T12:06:28.920Z,98368.47
2022-11-17T12:09:15.423Z,98398.16
2022-11-17T12:12:02.689Z,98387.88
2022-11-17T12:14:32.747Z,98396.22
2022-11-17T12:17:23.371Z,98386.41
2022-11-17T12:19:59.633Z,98389.06
2022-11-17T12:23:00.840Z,98396.53
2022-11-17T12:25:32.649Z,98404.47
2022-11-17T12:28:29.524Z,98392.78
2022-11-17T12:31:02.691Z,98404.66
2022-11-17T12:34:22.791Z,98387.19
2022-11-17T12:37:31.073Z,98388.44
2022-11-17T12:40:02.695Z,98406.31
2022-11-17T12:42:32.331Z,98425.34
2022-11-17T12:45:12.300Z,98395.44
2022-11-17T12:47:44.170Z,98403.00
2022-11-17T12:50:42.008Z,98406.44
2022-11-17T12:53:43.258Z,98403.47
2022-11-17T12:56:48.463Z,98406.84
2022-11-17T12:59:58.881Z,98415.47
2022-11-17T13:03:02.818Z,98432.31
2022-11-17T13:05:31.755Z,98433.88
2022-11-17T13:08:23.872Z,98419.38
2022-11-17T13:10:53.375Z,98461.66
2022-11-17T13:13:25.276Z,98464.22
2022-11-17T13:15:55.580Z,98455.94
2022-11-17T13:18:34.029Z,98447.84
2022-11-17T13:21:03.335Z,98451.19
2022-11-17T13:23:34.583Z,98432.63
2022-11-17T13:26:20.992Z,98439.72
2022-11-17T13:28:50.842Z,98425.69
2022-11-17T13:31:22.188Z,98416.66
2022-11-17T13:34:03.631Z,98452.19
2022-11-17T13:36:31.892Z,98467.88
2022-11-17T13:39:02.827Z,98430.84
2022-11-17T13:41:38.821Z,98463.84
2022-11-17T13:44:14.164Z,98468.19
2022-11-17T13:46:42.676Z,98440.47
2022-11-17T13:49:34.289Z,98476.22
2022-11-17T13:52:03.068Z,98482.38
2022-11-17T13:54:33.646Z,98480.22
2022-11-17T13:57:08.147Z,98481.00
2022-11-17T13:59:39.729Z,98470.06
2022-11-17T14:02:26.896Z,98488.38
2022-11-17T14:05:23.872Z,98490.25
2022-11-17T14:07:53.764Z,98498.13
2022-11-17T14:10:33.123Z,98496.13
2022-11-17T14:13:23.052Z,98493.56
2022-11-17T14:15:58.599Z,98500.19
2022-11-17T14:18:34.316Z,98497.38
2022-11-17T14:21:20.509Z,98485.28
2022-11-17T14:23:48.971Z,98502.25
2022-11-17T14:26:24.592Z,98519.91
2022-11-17T14:28:55.215Z,98525.19
2022-11-17T14:31:23.519Z,98509.69
2022-11-17T14:33:51.792Z,98504.31
2022-11-17T14:36:20.260Z,98514.91
2022-11-17T14:38:49.440Z,98521.00
2022-11-17T14:41:19.092Z,98514.28
2022-11-17T14:43:49.472Z,98516.56
2022-11-17T14:46:24.273Z,98525.69
2022-11-17T14:48:54.001Z,98523.50
2022-11-17T14:51:23.343Z,98523.50
2022-11-17T14:53:51.653Z,98554.38
2022-11-17T14:56:22.408Z,98542.69
2022-11-17T14:58:54.791Z,98557.81
2022-11-17T15:01:28.353Z,98535.34
2022-11-17T15:03:58.325Z,98554.88
2022-11-17T15:06:26.888Z,98572.56
2022-11-17T15:08:57.531Z,98538.34
2022-11-17T15:11:27.880Z,98533.72
2022-11-17T15:14:03.047Z,98544.25
2022-11-17T15:16:31.392Z,98572.97
2022-11-17T15:19:00.388Z,98590.69
2022-11-17T15:21:28.701Z,98557.84
2022-11-17T15:23:57.208Z,98579.75
2022-11-17T15:26:25.516Z,98548.19
2022-11-17T15:28:53.867Z,98592.19
2022-11-17T15:31:23.454Z,98552.63
2022-11-17T15:33:51.802Z,98575.97
2022-11-17T15:36:23.123Z,98583.84
2022-11-17T15:38:53.291Z,98581.72
2022-11-17T15:41:22.031Z,98586.97
2022-11-17T15:43:50.321Z,98605.19
2022-11-17T15:46:20.344Z,98609.59
2022-11-17T15:48:52.505Z,98583.97
2022-11-17T15:51:23.435Z,98594.38
2022-11-17T15:53:54.096Z,98594.75
2022-11-17T15:56:25.837Z,98603.19
2022-11-17T15:58:58.005Z,98588.44
2022-11-17T16:01:32.025Z,98583.34
2022-11-17T16:04:03.904Z,98596.94
2022-11-17T16:06:33.874Z,98600.97
2022-11-17T16:09:02.356Z,98613.81
2022-11-17T16:11:31.065Z,98597.31
2022-11-17T16:14:00.738Z,98629.72
2022-11-17T16:16:31.089Z,98648.03
2022-11-17T16:19:01.052Z,98622.38
2022-11-17T16:21:29.669Z,98626.75
2022-11-17T16:24:00.901Z,98641.41
2022-11-17T16:26:30.691Z,98604.38
2022-11-17T16:29:00.683Z,98656.94
2022-11-17T16:31:32.289Z,98630.41
2022-11-17T16:34:05.166Z,98667.56
2022-11-17T16:36:37.090Z,98665.69
2022-11-17T16:39:07.818Z,98634.31
2022-11-17T16:41:38.811Z,98693.09
2022-11-17T16:44:11.789Z,98666.56
2022-11-17T16:46:43.064Z,98665.91
2022-11-17T16:49:15.983Z,98677.31
2022-11-17T16:51:49.018Z,98689.50
2022-11-17T16:54:18.136Z,98665.78
2022-11-17T16:56:46.880Z,98679.88
2022-11-17T16:59:16.060Z,98680.81
2022-11-17T17:01:44.928Z,98676.59
2022-11-17T17:04:14.493Z,98684.34
2022-11-17T17:06:45.109Z,98689.75
2022-11-17T17:09:15.770Z,98674.91
2022-11-17T17:11:44.368Z,98683.84
2022-11-17T17:14:15.259Z,98686.13
2022-11-17T17:16:44.134Z,98672.19
2022-11-17T17:19:16.353Z,98689.53
2022-11-17T17:21:45.644Z,98700.56
2022-11-17T17:24:14.184Z,98714.63
2022-11-17T17:26:42.878Z,98688.03
2022-11-17T17:29:12.280Z,98711.38
2022-11-17T17:31:43.164Z,98751.16
2022-11-17T17:34:14.691Z,98720.72
2022-11-17T17:36:42.989Z,98739.66
2022-11-17T17:39:15.322Z,98740.44
2022-11-17T17:41:44.522Z,98741.34
2022-11-17T17:44:16.898Z,98737.69
2022-11-17T17:46:46.046Z,98744.22
2022-11-17T17:49:16.045Z,98743.41
2022-11-17T17:51:45.256Z,98770.47
2022-11-17T17:54:17.857Z,98754.63
2022-11-17T17:56:46.932Z,98797.63
2022-11-17T17:59:15.956Z,98768.53
2022-11-17T18:01:46.180Z,98763.81
2022-11-17T18:04:17.002Z,98770.81
2022-11-17T18:06:48.046Z,98787.69
2022-11-17T18:09:19.386Z,98779.72
2022-11-17T18:11:50.023Z,98793.78
2022-11-17T18:14:23.939Z,98774.41
2022-11-17T18:16:53.074Z,98812.47
2022-11-17T18:19:25.776Z,98799.19
2022-11-17T18:21:56.794Z,98805.19
2022-11-17T18:24:25.261Z,98809.53
2022-11-17T18:26:53.540Z,98813.94
2022-11-17T18:29:21.925Z,98810.69
2022-11-17T18:31:50.640Z,98823.16
2022-11-17T18:34:23.084Z,98818.72
2022-11-17T18:36:52.603Z,98807.84
2022-11-17T18:39:21.285Z,98822.94
2022-11-17T18:41:49.783Z,98820.81
2022-11-17T18:44:19.648Z,98820.16
2022-11-17T18:46:48.328Z,98841.56
2022-11-17T18:49:17.023Z,98829.34
2022-11-17T18:51:46.931Z,98837.13
2022-11-17T18:54:15.508Z,98847.81
2022-11-17T18:56:44.573Z,98844.09
2022-11-17T18:59:13.283Z,98853.47
2022-11-17T19:01:43.508Z,98843.34
2022-11-17T19:04:14.684Z,98857.53
2022-11-17T19:06:43.221Z,98847.84
2022-11-17T19:09:14.056Z,98849.53
2022-11-17T19:11:42.984Z,98850.84
2022-11-17T19:14:11.427Z,98856.84
2022-11-17T19:16:44.483Z,98871.34
2022-11-17T19:19:15.206Z,98863.03
2022-11-17T19:21:44.212Z,98860.31
2022-11-17T19:24:15.274Z,98877.34
2022-11-17T19:26:43.772Z,98870.88
2022-11-17T19:29:17.295Z,98857.19
2022-11-17T19:31:46.740Z,98869.97
2022-11-17T19:34:15.582Z,98872.63
2022-11-17T19:36:45.267Z,98876.25
2022-11-17T19:39:17.064Z,98877.91
2022-11-17T19:41:47.579Z,98884.06
2022-11-17T19:44:16.064Z,98891.03
2022-11-17T19:46:44.481Z,98892.16
2022-11-17T19:49:14.012Z,98890.22
2022-11-17T19:51:42.822Z,98881.66
2022-11-17T19:54:14.724Z,98895.97
2022-11-17T19:56:43.056Z,98895.13
2022-11-17T19:59:15.980Z,98903.19
2022-11-17T20:01:45.426Z,98895.41
2022-11-17T20:04:13.902Z,98904.94
2022-11-17T20:06:42.257Z,98920.69
2022-11-17T20:09:14.530Z,98924.94
2022-11-17T20:11:43.724Z,98945.53
2022-11-17T20:14:12.150Z,98953.69
2022-11-17T20:16:40.567Z,98953.00
2022-11-17T20:19:14.256Z,98947.47
2022-11-17T20:21:42.792Z,98945.03
2022-11-17T20:24:11.437Z,98959.09
2022-11-17T20:26:43.080Z,98969.91
2022-11-17T20:29:11.435Z,98961.97
2022-11-17T20:31:39.745Z,98984.28
2022-11-17T20:34:08.115Z,98970.00
2022-11-17T20:36:36.389Z,98972.34
2022-11-17T20:39:07.069Z,98971.69
2022-11-17T20:41:35.712Z,98993.94
2022-11-17T20:44:23.593Z,98999.38
2022-11-17T20:46:53.007Z,98997.31
2022-11-17T20:49:21.266Z,98993.78
2022-11-17T20:51:49.735Z,99012.97
2022-11-17T20:54:18.024Z,99005.22
2022-11-17T20:56:46.254Z,99013.97
2022-11-17T20:59:20.017Z,99019.25
2022-11-17T21:01:50.237Z,99017.44
2022-11-17T21:04:18.649Z,99038.09
2022-11-17T21:06:47.098Z,99035.59
2022-11-17T21:09:15.621Z,99035.53
2022-11-17T21:11:59.192Z,99046.03
2022-11-17T21:14:30.660Z,99049.09
2022-11-17T21:17:00.482Z,99036.25
2022-11-17T21:19:29.296Z,99019.34
2022-11-17T21:21:57.713Z,99047.47
2022-11-17T21:24:27.750Z,99045.06
2022-11-17T21:26:56.985Z,99044.34
2022-11-17T21:29:25.236Z,99039.03
2022-11-17T21:31:54.897Z,99049.47
2022-11-17T21:34:23.327Z,99054.00
2022-11-17T21:36:51.615Z,99055.97
2022-11-17T21:39:19.867Z,99064.06
2022-11-17T21:41:48.299Z,99060.53
2022-11-17T21:44:16.848Z,99059.66
2022-11-17T21:46:45.091Z,99064.84
2022-11-17T21:49:14.893Z,99055.31
2022-11-17T21:51:43.360Z,99070.97
2022-11-17T21:54:11.664Z,99079.22
2022-11-17T21:56:40.785Z,99071.53
2022-11-17T21:59:14.201Z,99087.38
2022-11-17T22:01:42.699Z,99083.84
2022-11-17T22:04:15.677Z,99085.66
2022-11-17T22:06:44.053Z,99092.84
2022-11-17T22:09:12.347Z,99098.16
2022-11-17T22:11:40.849Z,99093.13
2022-11-17T22:14:12.687Z,99101.91
2022-11-17T22:16:43.322Z,99080.28
2022-11-17T22:19:14.609Z,99073.00
2022-11-17T22:21:43.950Z,99110.06
2022-11-17T22:24:13.487Z,99118.91
2022-11-17T22:26:43.717Z,99129.69
2022-11-17T22:29:15.345Z,99122.78
2022-11-17T22:31:45.452Z,99122.75
2022-11-17T22:34:16.473Z,99119.09
2022-11-17T22:36:44.793Z,99133.81
2022-11-17T22:39:13.279Z,99127.94
2022-11-17T22:41:41.841Z,99130.72
2022-11-17T22:44:14.544Z,99142.94
2022-11-17T22:46:43.586Z,99155.53
2022-11-17T22:49:12.207Z,99144.91
2022-11-17T22:51:59.472Z,99146.06
2022-11-17T22:54:28.256Z,99155.91
2022-11-17T22:56:56.629Z,99157.59
2022-11-17T22:59:25.007Z,99168.03
2022-11-17T23:01:53.267Z,99170.56
2022-11-17T23:04:23.016Z,99149.16
2022-11-17T23:06:53.115Z,99143.09
2022-11-17T23:09:21.525Z,99172.81
2022-11-17T23:11:50.361Z,99185.94
2022-11-17T23:14:18.705Z,99174.94
2022-11-17T23:16:46.892Z,99180.25
2022-11-17T23:19:16.271Z,99177.94
2022-11-17T23:21:44.722Z,99189.09
2022-11-17T23:24:14.796Z,99197.06
2022-11-17T23:26:43.880Z,99196.00
2022-11-17T23:29:12.148Z,99196.06
2022-11-17T23:31:40.512Z,99210.09
2022-11-17T23:34:10.577Z,99213.63
2022-11-17T23:36:38.980Z,99223.06
2022-11-17T23:39:07.183Z,99224.66
2022-11-17T23:41:36.879Z,99227.63
2022-11-17T23:44:05.641Z,99222.53
2022-11-17T23:46:33.925Z,99228.56
2022-11-17T23:49:02.477Z,99230.50
2022-11-17T23:51:31.072Z,99225.09
2022-11-17T23:54:00.805Z,99233.97
2022-11-17T23:56:33.625Z,99231.94
2022-11-17T23:59:03.617Z,99243.56
